Time;durP1;ratioP1;P1;durP2;ratioP2;P2;SDS_P1;SDS_P2;PMS_P1;PMS_P2;Temp;Humidity;BMP_temperature;BMP_pressure;BME280_temperature;BME280_humidity;BME280_pressure;Samples;Min_cycle;Max_cycle;Signal;HPM_P1;HPM_P2
2022/08/12 00:43:59;;;;;;;;;;;20.40;58.70;;;;;;5098504;28;20012;-88
2022/08/12 00:46:35;;;;;;;;;;;20.40;58.40;;;;;;5079878;28;19912;-88
2022/08/12 00:49:25;;;;;;;;;;;20.30;58.50;;;;;;5067651;28;19956;-88
2022/08/12 00:52:10;;;;;;;;;;;20.30;57.90;;;;;;5074178;28;19943;-88
2022/08/12 00:54:38;;;;;;;;;;;20.30;58.00;;;;;;5076346;28;20221;-88
2022/08/12 00:57:06;;;;;;;;;;;20.30;57.30;;;;;;5073654;28;20005;-88
2022/08/12 00:59:32;;;;;;;;;;;20.30;58.10;;;;;;5090178;28;20358;-88
2022/08/12 01:01:59;;;;;;;;;;;20.30;58.70;;;;;;5069767;28;20370;-87
2022/08/12 01:12:43;;;;;;;;;;;20.20;58.60;;;;;;5073076;28;19970;-88
2022/08/12 01:15:10;;;;;;;;;;;20.30;58.80;;;;;;5070721;28;20208;-88
2022/08/12 01:17:40;;;;;;;;;;;20.20;58.90;;;;;;5058463;28;19916;-88
2022/08/12 01:20:07;;;;;;;;;;;20.10;60.20;;;;;;5065256;28;19912;-87
2022/08/12 01:22:54;;;;;;;;;;;20.10;59.30;;;;;;5091896;28;19998;-87
2022/08/12 01:25:21;;;;;;;;;;;20.10;59.70;;;;;;5073141;28;19912;-88
2022/08/12 01:27:48;;;;;;;;;;;20.10;59.80;;;;;;5075299;28;19909;-88
2022/08/12 01:30:17;;;;;;;;;;;20.10;59.90;;;;;;5089901;28;19934;-88
2022/08/12 01:32:49;;;;;;;;;;;20.00;59.90;;;;;;5097923;28;19923;-89
2022/08/12 01:35:16;;;;;;;;;;;19.90;60.00;;;;;;5078399;28;20390;-88
2022/08/12 01:37:46;;;;;;;;;;;19.80;60.40;;;;;;5100579;28;19982;-88
2022/08/12 01:40:12;;;;;;;;;;;19.80;60.40;;;;;;5083599;28;19942;-88
2022/08/12 01:42:44;;;;;;;;;;;19.70;60.60;;;;;;5079846;28;20424;-89
2022/08/12 01:45:23;;;;;;;;;;;19.70;60.90;;;;;;5074946;28;19918;-87
2022/08/12 01:47:51;;;;;;;;;;;19.60;60.70;;;;;;5066946;28;19912;-87
2022/08/12 01:50:25;;;;;;;;;;;19.60;61.20;;;;;;5089543;28;20267;-88
2022/08/12 01:52:56;;;;;;;;;;;19.50;61.40;;;;;;5062791;28;20004;-88
2022/08/12 01:55:32;;;;;;;;;;;19.50;61.60;;;;;;5072538;28;19909;-87
2022/08/12 01:58:16;;;;;;;;;;;19.50;61.40;;;;;;5082570;28;19924;-88
2022/08/12 02:00:50;;;;;;;;;;;19.40;61.20;;;;;;5055118;28;19934;-88
2022/08/12 02:12:07;;;;;;;;;;;19.50;60.60;;;;;;5094491;28;19935;-87
2022/08/12 02:14:53;;;;;;;;;;;19.50;60.90;;;;;;5072431;28;20387;-88
2022/08/12 02:17:22;;;;;;;;;;;19.50;60.70;;;;;;5072671;28;20329;-87
2022/08/12 02:20:09;;;;;;;;;;;19.40;61.60;;;;;;5073237;28;19912;-87
2022/08/12 02:22:37;;;;;;;;;;;19.40;61.50;;;;;;5073557;28;19935;-87
2022/08/12 02:25:09;;;;;;;;;;;19.40;62.20;;;;;;5070647;28;19965;-88
2022/08/12 02:27:44;;;;;;;;;;;19.40;61.90;;;;;;5094960;28;19919;-88
2022/08/12 02:30:12;;;;;;;;;;;19.50;60.70;;;;;;5095178;28;19916;-87
2022/08/12 02:32:51;;;;;;;;;;;;;;;;;;;;;
2022/08/12 02:35:26;;;;;;;;;;;19.40;61.00;;;;;;5079027;28;19916;-88
2022/08/12 02:38:05;;;;;;;;;;;19.40;61.50;;;;;;5076749;28;19947;-88
2022/08/12 02:40:33;;;;;;;;;;;19.40;62.80;;;;;;5095721;28;19962;-88
2022/08/12 02:43:02;;;;;;;;;;;19.30;62.30;;;;;;5089076;28;20359;-89
2022/08/12 02:45:44;;;;;;;;;;;19.20;62.30;;;;;;5078323;28;19908;-88
2022/08/12 02:48:14;;;;;;;;;;;19.20;62.00;;;;;;5090685;28;20297;-88
2022/08/12 02:50:43;;;;;;;;;;;19.20;62.40;;;;;;5078385;28;19908;-88
2022/08/12 02:53:13;;;;;;;;;;;19.10;62.40;;;;;;5094017;28;20014;-87
2022/08/12 02:55:44;;;;;;;;;;;19.10;62.60;;;;;;5109948;28;19919;-88
2022/08/12 02:58:10;;;;;;;;;;;19.10;62.90;;;;;;5090425;28;19920;-88
2022/08/12 03:00:39;;;;;;;;;;;19.10;62.70;;;;;;5076060;28;19912;-89
2022/08/12 03:03:22;;;;;;;;;;;19.10;63.50;;;;;;5093373;28;19962;-87
2022/08/12 03:05:59;;;;;;;;;;;19.10;62.50;;;;;;5089825;28;19999;-87
2022/08/12 03:08:43;;;;;;;;;;;19.00;63.40;;;;;;5074987;28;19926;-87
2022/08/12 03:11:20;;;;;;;;;;;19.00;63.70;;;;;;5076338;28;19926;-88
2022/08/12 03:13:53;;;;;;;;;;;19.00;62.90;;;;;;5082096;28;19934;-88
2022/08/12 03:16:19;;;;;;;;;;;19.00;63.00;;;;;;5080594;28;19912;-88
2022/08/12 03:18:45;;;;;;;;;;;18.90;64.00;;;;;;5069757;28;20375;-87
2022/08/12 03:21:14;;;;;;;;;;;19.00;62.40;;;;;;5093526;28;20504;-88
2022/08/12 03:23:40;;;;;;;;;;;18.90;63.20;;;;;;5069361;28;19916;-89
2022/08/12 03:26:15;;;;;;;;;;;18.90;64.20;;;;;;5091641;28;19963;-88
2022/08/12 03:28:52;;;;;;;;;;;18.90;64.60;;;;;;5075561;28;19976;-87
2022/08/12 03:31:32;;;;;;;;;;;18.80;64.90;;;;;;5079897;28;19950;-88
2022/08/12 03:33:59;;;;;;;;;;;18.70;64.80;;;;;;5077455;28;19908;-88
2022/08/12 03:36:42;;;;;;;;;;;18.80;65.30;;;;;;5087973;28;19912;-86
2022/08/12 03:41:48;;;;;;;;;;;18.60;65.50;;;;;;5086785;28;20011;-88
2022/08/12 04:01:27;;;;;;;;;;;18.60;64.60;;;;;;5085921;28;20061;-88
2022/08/12 04:03:56;;;;;;;;;;;18.60;65.00;;;;;;5103976;28;19912;-87
2022/08/12 04:06:29;;;;;;;;;;;18.50;65.60;;;;;;5078503;28;19919;-88
2022/08/12 04:08:56;;;;;;;;;;;18.50;65.30;;;;;;5078802;28;19969;-87
2022/08/12 04:14:18;;;;;;;;;;;18.50;65.40;;;;;;5118219;28;19930;-87
2022/08/12 04:16:49;;;;;;;;;;;18.50;65.00;;;;;;5084124;28;19966;-87
2022/08/12 04:19:23;;;;;;;;;;;18.40;65.40;;;;;;5065163;28;19944;-87
2022/08/12 04:21:52;;;;;;;;;;;18.30;65.20;;;;;;5090704;28;19912;-87
2022/08/12 04:24:18;;;;;;;;;;;18.30;65.70;;;;;;5076473;28;20031;-87
2022/08/12 04:26:44;;;;;;;;;;;18.30;65.90;;;;;;5073216;28;19912;-86
2022/08/12 04:29:10;;;;;;;;;;;18.20;66.10;;;;;;5091071;28;20295;-87
2022/08/12 04:31:39;;;;;;;;;;;18.10;66.60;;;;;;5090451;28;19908;-87
2022/08/12 04:34:08;;;;;;;;;;;18.10;66.90;;;;;;5071178;28;20064;-87
2022/08/12 04:36:35;;;;;;;;;;;18.10;67.10;;;;;;5076298;28;19908;-86
2022/08/12 04:39:25;;;;;;;;;;;18.10;67.70;;;;;;5075232;28;20314;-87
2022/08/12 04:41:53;;;;;;;;;;;18.10;67.60;;;;;;5076749;28;19912;-87
2022/08/12 04:44:22;;;;;;;;;;;18.10;67.50;;;;;;5092583;28;19915;-87
2022/08/12 04:46:55;;;;;;;;;;;18.20;67.50;;;;;;5078496;28;20301;-87
2022/08/12 04:49:27;;;;;;;;;;;18.20;67.50;;;;;;5103072;28;19915;-87
2022/08/12 04:52:03;;;;;;;;;;;18.30;67.50;;;;;;5082050;28;20007;-87
2022/08/12 04:54:37;;;;;;;;;;;18.30;67.40;;;;;;5057224;28;19992;-87
2022/08/12 04:57:18;;;;;;;;;;;18.30;67.60;;;;;;5075138;28;20443;-87
2022/08/12 04:59:44;;;;;;;;;;;18.30;68.00;;;;;;5088975;28;19913;-85
2022/08/12 05:02:09;;;;;;;;;;;18.30;68.00;;;;;;5080722;28;19912;-86
2022/08/12 05:04:41;;;;;;;;;;;18.30;67.70;;;;;;5073254;28;19916;-87
2022/08/12 05:07:22;;;;;;;;;;;18.40;67.40;;;;;;5073627;28;19917;-87
2022/08/12 05:09:51;;;;;;;;;;;18.50;67.80;;;;;;5069790;28;19948;-87
2022/08/12 05:12:18;;;;;;;;;;;18.50;68.00;;;;;;5074063;28;20315;-87
2022/08/12 05:14:49;;;;;;;;;;;18.50;68.30;;;;;;5074805;28;19912;-87
2022/08/12 05:17:18;;;;;;;;;;;18.50;68.90;;;;;;5090447;28;19920;-87
2022/08/12 05:19:43;;;;;;;;;;;18.50;69.40;;;;;;5059919;28;19909;-86
2022/08/12 05:22:09;;;;;;;;;;;18.60;69.40;;;;;;5106778;28;20282;-86
2022/08/12 05:24:35;;;;;;;;;;;18.60;69.00;;;;;;5086468;28;20009;-86
2022/08/12 05:27:01;;;;;;;;;;;18.70;69.10;;;;;;5074767;28;19912;-85
2022/08/12 05:29:28;;;;;;;;;;;18.70;69.00;;;;;;5088975;28;19915;-86
2022/08/12 05:31:55;;;;;;;;;;;18.80;68.50;;;;;;5089335;28;19973;-85
2022/08/12 05:34:21;;;;;;;;;;;18.80;68.60;;;;;;5087843;28;19934;-84
2022/08/12 05:36:46;;;;;;;;;;;18.80;69.20;;;;;;5098077;28;19912;-84
2022/08/12 05:39:12;;;;;;;;;;;18.80;69.40;;;;;;5080283;28;19918;-84
2022/08/12 05:41:38;;;;;;;;;;;19.00;69.30;;;;;;5076294;28;20008;-85
2022/08/12 05:44:05;;;;;;;;;;;19.00;68.50;;;;;;5073144;28;19923;-84
2022/08/12 05:46:30;;;;;;;;;;;19.10;67.90;;;;;;5069352;28;19962;-84
2022/08/12 05:48:57;;;;;;;;;;;19.10;68.20;;;;;;5095997;27;19917;-84
2022/08/12 05:51:26;;;;;;;;;;;19.20;67.90;;;;;;5095217;28;20007;-83
2022/08/12 05:53:52;;;;;;;;;;;19.20;67.80;;;;;;5065781;28;20405;-84
2022/08/12 05:56:19;;;;;;;;;;;19.30;67.50;;;;;;5095090;28;19908;-84
2022/08/12 05:58:45;;;;;;;;;;;19.40;67.60;;;;;;5076434;28;20350;-84
2022/08/12 06:01:11;;;;;;;;;;;19.40;67.50;;;;;;5091478;28;19928;-83
2022/08/12 06:03:36;;;;;;;;;;;19.50;67.70;;;;;;5062328;28;19912;-85
2022/08/12 06:06:03;;;;;;;;;;;19.60;66.90;;;;;;5060383;28;19915;-85
2022/08/12 06:08:28;;;;;;;;;;;19.70;66.80;;;;;;5061794;28;19912;-85
2022/08/12 06:10:55;;;;;;;;;;;19.80;66.90;;;;;;5065350;28;19912;-84
2022/08/12 06:13:21;;;;;;;;;;;19.80;66.60;;;;;;5081501;28;19970;-84
2022/08/12 06:15:48;;;;;;;;;;;20.00;66.60;;;;;;5081748;28;20382;-85
2022/08/12 06:18:13;;;;;;;;;;;20.10;65.80;;;;;;5082277;28;19934;-85
2022/08/12 06:20:39;;;;;;;;;;;20.20;64.80;;;;;;5082579;28;19908;-84
2022/08/12 06:23:05;;;;;;;;;;;20.40;63.70;;;;;;5075701;28;19955;-85
2022/08/12 06:25:30;;;;;;;;;;;20.80;62.40;;;;;;5073690;28;19983;-85
2022/08/12 06:27:58;;;;;;;;;;;21.30;61.10;;;;;;5079605;28;19912;-85
2022/08/12 06:30:27;;;;;;;;;;;21.50;60.10;;;;;;5079280;28;20378;-86
2022/08/12 06:32:52;;;;;;;;;;;21.60;60.00;;;;;;5078542;28;19923;-85
2022/08/12 06:35:18;;;;;;;;;;;21.50;59.80;;;;;;5097184;28;19912;-85
2022/08/12 06:37:49;;;;;;;;;;;21.30;60.40;;;;;;5112305;28;19917;-85
2022/08/12 06:40:14;;;;;;;;;;;21.20;60.70;;;;;;5129368;22;20315;-77
2022/08/12 06:42:46;;;;;;;;;;;21.10;59.60;;;;;;5088148;28;20003;-78
2022/08/12 06:45:13;;;;;;;;;;;21.10;60.80;;;;;;5095437;28;19919;-78
2022/08/12 06:47:39;;;;;;;;;;;21.10;60.20;;;;;;5070873;28;19913;-80
2022/08/12 06:50:05;;;;;;;;;;;21.10;60.50;;;;;;5051414;28;20563;-80
2022/08/12 06:52:31;;;;;;;;;;;21.10;60.40;;;;;;5071328;28;19920;-78
2022/08/12 06:54:57;;;;;;;;;;;21.10;60.70;;;;;;5077310;28;19909;-79
2022/08/12 06:57:26;;;;;;;;;;;21.10;60.40;;;;;;5057914;28;19920;-78
2022/08/12 06:59:52;;;;;;;;;;;21.40;58.80;;;;;;5075423;28;20009;-77
2022/08/12 07:02:19;;;;;;;;;;;21.40;58.50;;;;;;5057346;28;19916;-78
2022/08/12 07:04:46;;;;;;;;;;;21.80;56.90;;;;;;5057565;28;20678;-78
2022/08/12 07:07:11;;;;;;;;;;;21.70;57.30;;;;;;5074852;28;20319;-77
2022/08/12 07:09:37;;;;;;;;;;;21.80;57.40;;;;;;5074721;28;19917;-78
2022/08/12 07:12:03;;;;;;;;;;;22.10;57.00;;;;;;5073712;28;19916;-78
2022/08/12 07:14:28;;;;;;;;;;;21.90;57.80;;;;;;5071183;28;19912;-77
2022/08/12 07:17:00;;;;;;;;;;;21.80;57.60;;;;;;5065633;28;19935;-76
2022/08/12 07:19:26;;;;;;;;;;;22.00;57.90;;;;;;5051671;28;19912;-77
2022/08/12 07:21:52;;;;;;;;;;;22.00;57.20;;;;;;5067270;28;19974;-76
2022/08/12 07:24:17;;;;;;;;;;;22.00;57.10;;;;;;5069786;28;19916;-77
2022/08/12 07:26:43;;;;;;;;;;;22.10;56.40;;;;;;5053217;28;19992;-79
2022/08/12 07:29:09;;;;;;;;;;;22.40;56.00;;;;;;5073672;28;19958;-78
2022/08/12 07:31:35;;;;;;;;;;;22.40;56.80;;;;;;5054958;28;19916;-77
2022/08/12 07:34:01;;;;;;;;;;;22.50;56.10;;;;;;5056219;28;19921;-77
2022/08/12 07:36:27;;;;;;;;;;;22.50;56.20;;;;;;5053618;28;19995;-78
2022/08/12 07:38:52;;;;;;;;;;;22.60;56.30;;;;;;5051684;28;20026;-78
2022/08/12 07:41:19;;;;;;;;;;;22.60;55.20;;;;;;5058815;28;19926;-78
2022/08/12 07:43:49;;;;;;;;;;;22.80;55.60;;;;;;5074824;28;19920;-78
2022/08/12 07:46:16;;;;;;;;;;;22.90;54.20;;;;;;5068815;28;19919;-76
2022/08/12 07:48:49;;;;;;;;;;;23.00;53.80;;;;;;5067657;28;19920;-77
2022/08/12 07:51:15;;;;;;;;;;;23.00;52.60;;;;;;5070791;28;19912;-76
2022/08/12 07:53:40;;;;;;;;;;;23.50;50.90;;;;;;5052751;28;20375;-77
2022/08/12 07:56:08;;;;;;;;;;;23.80;50.50;;;;;;5053807;28;19913;-77
2022/08/12 07:58:37;;;;;;;;;;;23.60;50.30;;;;;;5067913;28;20019;-76
2022/08/12 08:01:04;;;;;;;;;;;23.60;50.00;;;;;;5049153;28;19913;-75
2022/08/12 08:03:30;;;;;;;;;;;23.60;49.30;;;;;;5051726;28;19919;-76
2022/08/12 08:05:55;;;;;;;;;;;23.60;48.20;;;;;;5053328;28;19920;-77
2022/08/12 08:08:22;;;;;;;;;;;23.80;47.70;;;;;;5056986;28;20004;-77
2022/08/12 08:10:49;;;;;;;;;;;24.00;48.20;;;;;;5051973;28;19920;-77
2022/08/12 08:13:15;;;;;;;;;;;24.00;49.70;;;;;;5073369;28;19957;-77
2022/08/12 08:15:44;;;;;;;;;;;24.00;47.30;;;;;;5065189;28;19917;-77
2022/08/12 08:18:10;;;;;;;;;;;24.00;47.10;;;;;;5037705;28;19924;-77
2022/08/12 08:20:38;;;;;;;;;;;24.10;47.70;;;;;;5051594;28;19916;-77
2022/08/12 08:23:06;;;;;;;;;;;24.10;47.90;;;;;;5070164;28;19916;-78
2022/08/12 08:25:32;;;;;;;;;;;24.30;46.80;;;;;;5053713;28;19912;-79
2022/08/12 08:28:02;;;;;;;;;;;24.40;47.10;;;;;;5075534;28;20026;-79
2022/08/12 08:30:28;;;;;;;;;;;24.50;46.00;;;;;;5051216;28;19962;-81
2022/08/12 08:32:54;;;;;;;;;;;24.60;44.60;;;;;;5070558;28;19948;-80
2022/08/12 08:35:21;;;;;;;;;;;24.60;44.90;;;;;;5071342;28;19955;-82
2022/08/12 08:37:47;;;;;;;;;;;24.70;44.40;;;;;;5063447;28;19963;-82
2022/08/12 08:42:57;;;;;;;;;;;24.90;44.40;;;;;;5079044;28;19923;-83
2022/08/12 08:45:23;;;;;;;;;;;25.00;44.60;;;;;;5068476;28;19921;-81
2022/08/12 08:47:48;;;;;;;;;;;25.00;44.10;;;;;;5066581;28;19923;-81
2022/08/12 08:50:15;;;;;;;;;;;25.10;43.00;;;;;;5083683;28;19960;-80
2022/08/12 08:52:43;;;;;;;;;;;25.10;42.40;;;;;;5081534;28;20014;-79
2022/08/12 08:55:13;;;;;;;;;;;25.30;41.20;;;;;;5064427;28;19916;-80
2022/08/12 08:57:39;;;;;;;;;;;25.50;40.50;;;;;;5083631;28;19912;-81
2022/08/12 09:00:05;;;;;;;;;;;25.50;41.30;;;;;;5067094;28;19938;-79
2022/08/12 09:02:30;;;;;;;;;;;25.60;40.10;;;;;;5080333;28;19944;-79
2022/08/12 09:04:56;;;;;;;;;;;25.60;40.30;;;;;;5074465;28;19913;-82
2022/08/12 09:07:21;;;;;;;;;;;25.60;40.40;;;;;;5072886;28;20258;-80
2022/08/12 09:09:47;;;;;;;;;;;25.70;38.70;;;;;;5052860;28;19914;-82
2022/08/12 09:14:57;;;;;;;;;;;25.30;43.80;;;;;;5073304;28;20462;-81
2022/08/12 09:17:22;;;;;;;;;;;25.10;43.80;;;;;;5069274;28;19920;-82
2022/08/12 09:19:49;;;;;;;;;;;25.10;41.60;;;;;;5053821;28;19981;-82
2022/08/12 09:22:14;;;;;;;;;;;25.10;41.30;;;;;;5073820;28;19908;-80
2022/08/12 09:24:40;;;;;;;;;;;25.20;39.80;;;;;;5054086;28;20062;-82
2022/08/12 09:27:05;;;;;;;;;;;25.30;40.50;;;;;;5053859;28;19909;-80
2022/08/12 09:29:32;;;;;;;;;;;25.40;37.40;;;;;;5074147;28;19909;-81
2022/08/12 09:31:59;;;;;;;;;;;25.50;39.20;;;;;;5040198;28;19909;-81
2022/08/12 09:34:26;;;;;;;;;;;25.60;39.40;;;;;;5036476;28;20262;-81
2022/08/12 09:36:52;;;;;;;;;;;25.60;40.20;;;;;;5036498;28;20014;-81
2022/08/12 09:39:17;;;;;;;;;;;25.90;37.40;;;;;;5052052;28;20410;-81
2022/08/12 09:41:44;;;;;;;;;;;26.00;38.00;;;;;;5065952;28;19916;-80
2022/08/12 09:46:54;;;;;;;;;;;26.30;37.00;;;;;;5062733;28;20432;-80
2022/08/12 09:49:26;;;;;;;;;;;26.30;36.80;;;;;;5071927;28;19960;-80
2022/08/12 09:51:53;;;;;;;;;;;26.10;36.70;;;;;;5054861;28;20365;-80
2022/08/12 09:54:20;;;;;;;;;;;26.20;38.30;;;;;;5048800;28;19956;-80
2022/08/12 09:56:45;;;;;;;;;;;26.20;37.70;;;;;;5067400;28;19936;-82
2022/08/12 09:59:11;;;;;;;;;;;26.20;36.50;;;;;;5052509;28;19920;-82
2022/08/12 10:01:37;;;;;;;;;;;26.50;35.60;;;;;;5055207;28;19917;-80
2022/08/12 10:04:09;;;;;;;;;;;26.90;35.90;;;;;;5074959;28;19917;-81
2022/08/12 10:06:35;;;;;;;;;;;27.00;35.20;;;;;;5066026;28;20015;-80
2022/08/12 10:09:01;;;;;;;;;;;27.00;35.20;;;;;;5066353;28;19913;-82
2022/08/12 10:14:11;;;;;;;;;;;26.90;34.40;;;;;;5065026;28;19963;-83
2022/08/12 10:16:42;;;;;;;;;;;27.00;36.20;;;;;;5058535;28;19917;-82
2022/08/12 10:19:08;;;;;;;;;;;27.00;35.40;;;;;;5046114;28;19932;-81
2022/08/12 10:21:38;;;;;;;;;;;27.20;34.40;;;;;;5043962;28;20369;-81
2022/08/12 10:24:11;;;;;;;;;;;27.10;35.40;;;;;;5055668;28;19920;-83
2022/08/12 10:29:43;;;;;;;;;;;27.20;35.10;;;;;;5078570;28;19931;-81
2022/08/12 10:32:11;;;;;;;;;;;27.10;35.60;;;;;;5066813;28;19923;-82
2022/08/12 10:34:36;;;;;;;;;;;27.30;36.10;;;;;;5068418;28;19916;-82
2022/08/12 10:37:02;;;;;;;;;;;27.10;34.80;;;;;;5055066;28;19923;-83
2022/08/12 10:39:34;;;;;;;;;;;27.20;35.80;;;;;;5038211;28;19912;-83
2022/08/12 10:44:47;;;;;;;;;;;27.30;34.60;;;;;;5072781;28;19919;-82
2022/08/12 10:47:15;;;;;;;;;;;27.40;35.80;;;;;;5040063;28;19967;-80
2022/08/12 10:49:43;;;;;;;;;;;27.50;33.70;;;;;;5072501;28;19916;-82
2022/08/12 10:52:09;;;;;;;;;;;27.30;33.20;;;;;;5056585;28;19909;-82
2022/08/12 10:54:35;;;;;;;;;;;27.40;34.60;;;;;;5052347;28;20385;-81
2022/08/12 10:57:01;;;;;;;;;;;27.60;33.70;;;;;;5049410;28;20324;-82
2022/08/12 10:59:28;;;;;;;;;;;27.70;33.80;;;;;;5050222;28;19912;-81
2022/08/12 11:01:55;;;;;;;;;;;27.80;34.00;;;;;;5053876;28;19921;-82
2022/08/12 11:04:21;;;;;;;;;;;27.70;33.50;;;;;;5053762;28;20412;-81
2022/08/12 11:06:46;;;;;;;;;;;27.70;35.10;;;;;;5059756;28;20035;-82
2022/08/12 11:09:16;;;;;;;;;;;27.70;34.70;;;;;;5054769;28;20003;-82
2022/08/12 11:11:42;;;;;;;;;;;27.60;34.70;;;;;;5062321;28;19940;-82
2022/08/12 11:14:08;;;;;;;;;;;28.00;33.00;;;;;;5046479;28;19916;-83
2022/08/12 11:16:33;;;;;;;;;;;27.80;33.90;;;;;;5042163;28;19928;-82
2022/08/12 11:18:59;;;;;;;;;;;27.80;32.40;;;;;;5057846;28;19960;-80
2022/08/12 11:21:24;;;;;;;;;;;27.80;32.80;;;;;;5073024;28;19916;-81
2022/08/12 11:23:50;;;;;;;;;;;27.80;34.40;;;;;;5055479;28;19928;-81
2022/08/12 11:26:15;;;;;;;;;;;27.70;34.00;;;;;;5042501;28;19920;-80
2022/08/12 11:28:41;;;;;;;;;;;27.70;33.10;;;;;;5053358;28;20018;-79
2022/08/12 11:31:07;;;;;;;;;;;27.90;33.50;;;;;;5053877;28;19927;-81
2022/08/12 11:33:33;;;;;;;;;;;27.60;34.60;;;;;;5049640;28;19995;-82
2022/08/12 11:36:06;;;;;;;;;;;27.60;35.20;;;;;;5050061;28;20003;-80
2022/08/12 11:38:31;;;;;;;;;;;27.70;33.70;;;;;;5049079;28;20410;-81
2022/08/12 11:40:57;;;;;;;;;;;27.90;32.80;;;;;;5045386;28;19924;-83
2022/08/12 11:43:22;;;;;;;;;;;28.10;33.30;;;;;;5048039;28;19967;-83
2022/08/12 11:45:48;;;;;;;;;;;28.10;30.80;;;;;;5050044;28;19966;-81
2022/08/12 11:48:14;;;;;;;;;;;28.20;30.60;;;;;;5070602;28;20424;-82
2022/08/12 11:50:42;;;;;;;;;;;28.20;31.70;;;;;;5072340;28;19920;-81
2022/08/12 11:53:07;;;;;;;;;;;28.20;30.50;;;;;;5058360;28;19973;-83
2022/08/12 11:55:33;;;;;;;;;;;28.20;30.50;;;;;;5071203;28;20624;-83
2022/08/12 11:57:58;;;;;;;;;;;28.10;30.90;;;;;;5070800;28;20369;-84
2022/08/12 12:00:24;;;;;;;;;;;28.10;30.30;;;;;;5051715;28;19912;-81
2022/08/12 12:02:49;;;;;;;;;;;28.20;29.70;;;;;;5053528;28;19912;-82
2022/08/12 12:05:15;;;;;;;;;;;28.50;31.00;;;;;;5067839;28;19912;-79
2022/08/12 12:07:42;;;;;;;;;;;28.40;28.80;;;;;;5048451;28;19924;-81
2022/08/12 12:10:08;;;;;;;;;;;28.40;29.80;;;;;;5053266;28;19916;-80
2022/08/12 12:12:34;;;;;;;;;;;28.30;29.90;;;;;;5046889;28;20444;-80
2022/08/12 12:14:59;;;;;;;;;;;28.30;29.70;;;;;;5054617;28;19966;-79
2022/08/12 12:17:25;;;;;;;;;;;28.30;29.10;;;;;;5078074;28;19928;-77
2022/08/12 12:19:51;;;;;;;;;;;28.50;29.20;;;;;;5058109;28;19984;-78
2022/08/12 12:22:17;;;;;;;;;;;28.50;28.90;;;;;;5053838;28;20038;-78
2022/08/12 12:24:45;;;;;;;;;;;28.50;28.50;;;;;;5056915;28;19936;-78
2022/08/12 12:27:10;;;;;;;;;;;28.50;28.90;;;;;;5071347;28;19917;-78
2022/08/12 12:29:36;;;;;;;;;;;28.50;29.30;;;;;;5051757;28;19919;-80
2022/08/12 12:32:01;;;;;;;;;;;28.60;27.20;;;;;;5069852;28;19912;-78
2022/08/12 12:34:27;;;;;;;;;;;28.60;28.60;;;;;;5057109;28;20332;-77
2022/08/12 12:36:52;;;;;;;;;;;28.60;28.20;;;;;;5051977;28;19912;-78
2022/08/12 12:39:18;;;;;;;;;;;28.70;28.50;;;;;;5058056;28;19963;-78
2022/08/12 12:41:43;;;;;;;;;;;28.60;30.70;;;;;;5105991;22;19928;-81
2022/08/12 12:44:09;;;;;;;;;;;28.70;29.50;;;;;;5099708;28;19934;-82
2022/08/12 12:46:34;;;;;;;;;;;28.80;29.60;;;;;;5090839;28;20290;-83
2022/08/12 12:48:59;;;;;;;;;;;28.80;28.90;;;;;;5081110;28;19923;-82
2022/08/12 12:51:25;;;;;;;;;;;28.70;29.80;;;;;;5069198;28;20011;-83
2022/08/12 12:53:51;;;;;;;;;;;28.60;29.70;;;;;;5093318;28;19960;-81
2022/08/12 12:56:21;;;;;;;;;;;28.90;29.50;;;;;;5067723;28;19936;-82
2022/08/12 12:58:50;;;;;;;;;;;28.90;29.10;;;;;;5090768;28;19920;-82
2022/08/12 13:01:18;;;;;;;;;;;28.70;29.10;;;;;;5088863;28;19912;-84
2022/08/12 13:03:44;;;;;;;;;;;28.70;29.90;;;;;;5096288;28;19912;-83
2022/08/12 13:06:11;;;;;;;;;;;28.80;30.00;;;;;;5107971;28;19916;-82
2022/08/12 13:08:37;;;;;;;;;;;28.80;28.70;;;;;;5079353;28;19972;-82
2022/08/12 13:11:04;;;;;;;;;;;28.80;28.80;;;;;;5094418;28;19945;-79
2022/08/12 13:13:31;;;;;;;;;;;29.00;27.80;;;;;;5076804;28;19912;-82
2022/08/12 13:15:58;;;;;;;;;;;29.00;28.10;;;;;;5067487;28;19923;-81
2022/08/12 13:18:24;;;;;;;;;;;29.00;29.30;;;;;;5084330;28;19926;-80
2022/08/12 13:20:49;;;;;;;;;;;28.90;28.40;;;;;;5094008;28;19915;-80
2022/08/12 13:23:18;;;;;;;;;;;28.80;28.80;;;;;;5069047;28;19946;-87
2022/08/12 13:25:44;;;;;;;;;;;28.70;29.30;;;;;;5071313;28;19912;-83
2022/08/12 13:28:23;;;;;;;;;;;28.70;28.80;;;;;;5084410;28;19916;-83
2022/08/12 13:30:51;;;;;;;;;;;28.70;30.10;;;;;;5081516;28;19931;-84
2022/08/12 13:33:24;;;;;;;;;;;29.00;30.30;;;;;;5066982;28;20423;-82
2022/08/12 13:35:54;;;;;;;;;;;29.00;29.50;;;;;;5065131;28;19965;-83
2022/08/12 13:38:20;;;;;;;;;;;29.00;29.50;;;;;;5094564;28;19956;-83
2022/08/12 13:40:45;;;;;;;;;;;29.20;28.10;;;;;;5070400;28;19969;-82
2022/08/12 13:43:16;;;;;;;;;;;29.10;29.00;;;;;;5084108;28;19997;-83
2022/08/12 13:45:42;;;;;;;;;;;28.90;29.70;;;;;;5072085;28;19913;-81
2022/08/12 13:48:07;;;;;;;;;;;28.80;30.60;;;;;;5081007;28;19913;-80
2022/08/12 13:50:37;;;;;;;;;;;28.80;30.70;;;;;;5060315;28;20404;-81
2022/08/12 13:53:13;;;;;;;;;;;29.00;29.30;;;;;;5074827;28;19927;-81
2022/08/12 13:55:39;;;;;;;;;;;28.90;29.70;;;;;;5064427;28;19926;-81
2022/08/12 13:58:05;;;;;;;;;;;28.90;30.70;;;;;;5068258;28;19920;-81
2022/08/12 14:00:35;;;;;;;;;;;28.90;31.30;;;;;;5059588;28;19912;-82
2022/08/12 14:03:00;;;;;;;;;;;29.00;30.80;;;;;;5087432;28;19923;-81
2022/08/12 14:05:26;;;;;;;;;;;29.10;29.40;;;;;;5069039;28;19912;-81
2022/08/12 14:07:52;;;;;;;;;;;29.00;29.70;;;;;;5065391;28;19970;-82
2022/08/12 14:10:37;;;;;;;;;;;29.10;29.60;;;;;;5058693;28;19920;-82
2022/08/12 14:13:04;;;;;;;;;;;29.40;29.00;;;;;;5069302;28;20745;-81
2022/08/12 14:15:30;;;;;;;;;;;29.50;28.90;;;;;;5097227;28;19946;-81
2022/08/12 14:18:03;;;;;;;;;;;29.20;29.90;;;;;;5075559;28;19924;-79
2022/08/12 14:20:29;;;;;;;;;;;29.30;29.20;;;;;;5067772;28;19920;-83
2022/08/12 14:22:56;;;;;;;;;;;29.30;30.00;;;;;;5090752;28;20286;-85
2022/08/12 14:25:23;;;;;;;;;;;29.30;29.80;;;;;;5075930;28;19939;-85
2022/08/12 14:27:48;;;;;;;;;;;29.30;29.80;;;;;;5078198;28;19916;-84
2022/08/12 14:30:14;;;;;;;;;;;29.20;28.80;;;;;;5089845;28;20398;-85
2022/08/12 14:32:40;;;;;;;;;;;29.10;29.40;;;;;;5086112;28;19912;-85
2022/08/12 14:35:06;;;;;;;;;;;29.10;28.90;;;;;;5090171;28;20247;-84
2022/08/12 14:37:31;;;;;;;;;;;29.10;29.80;;;;;;5089425;28;19920;-85
2022/08/12 14:39:57;;;;;;;;;;;29.20;28.90;;;;;;5074514;28;20061;-84
2022/08/12 14:42:22;;;;;;;;;;;29.20;29.10;;;;;;5089086;28;20298;-83
2022/08/12 14:44:48;;;;;;;;;;;29.20;29.00;;;;;;5085095;28;19996;-83
2022/08/12 14:47:13;;;;;;;;;;;29.20;30.00;;;;;;5074755;28;19912;-88
2022/08/12 14:49:39;;;;;;;;;;;29.20;29.10;;;;;;5074829;28;20372;-83
2022/08/12 14:52:05;;;;;;;;;;;29.10;29.80;;;;;;5091968;28;19919;-85
2022/08/12 14:54:31;;;;;;;;;;;29.10;29.20;;;;;;5093881;28;19957;-84
2022/08/12 14:56:57;;;;;;;;;;;29.20;29.00;;;;;;5091326;28;19923;-83
2022/08/12 15:02:09;;;;;;;;;;;29.40;28.00;;;;;;5090056;28;19919;-85
2022/08/12 15:04:35;;;;;;;;;;;29.20;29.20;;;;;;5086557;28;19913;-82
2022/08/12 15:07:02;;;;;;;;;;;29.10;29.60;;;;;;5087206;28;19927;-85
2022/08/12 15:09:27;;;;;;;;;;;29.10;29.50;;;;;;5075602;28;19998;-82
2022/08/12 15:11:53;;;;;;;;;;;29.10;27.50;;;;;;5068345;28;19947;-83
2022/08/12 15:14:18;;;;;;;;;;;29.10;27.70;;;;;;5074998;28;19916;-80
2022/08/12 15:16:44;;;;;;;;;;;29.20;27.70;;;;;;5088457;28;19912;-84
2022/08/12 15:19:09;;;;;;;;;;;29.10;27.80;;;;;;5074141;28;19942;-87
2022/08/12 15:21:38;;;;;;;;;;;29.20;28.70;;;;;;5069587;28;19913;-84
2022/08/12 15:24:04;;;;;;;;;;;29.10;27.70;;;;;;5070161;28;19926;-85
2022/08/12 15:26:37;;;;;;;;;;;29.10;28.90;;;;;;5086032;28;20341;-88
2022/08/12 15:29:06;;;;;;;;;;;29.00;29.40;;;;;;5090601;28;19916;-85
2022/08/12 15:31:34;;;;;;;;;;;29.00;28.30;;;;;;5065786;28;19913;-83
2022/08/12 15:34:03;;;;;;;;;;;29.00;29.20;;;;;;5062818;28;19982;-84
2022/08/12 15:36:28;;;;;;;;;;;29.00;29.20;;;;;;5090794;28;19974;-82
2022/08/12 15:38:59;;;;;;;;;;;29.00;29.10;;;;;;5086236;28;19951;-84
2022/08/12 15:44:23;;;;;;;;;;;29.00;28.20;;;;;;5083394;28;20289;-82
2022/08/12 15:46:53;;;;;;;;;;;29.10;28.20;;;;;;5068134;28;19950;-83
2022/08/12 15:49:24;;;;;;;;;;;29.00;29.10;;;;;;5081934;28;20465;-83
2022/08/12 15:52:00;;;;;;;;;;;;;;;;;;;;;
2022/08/12 15:54:28;;;;;;;;;;;29.10;27.70;;;;;;5080257;28;19918;-84
2022/08/12 15:57:23;;;;;;;;;;;29.10;27.10;;;;;;5059917;28;19920;-84
2022/08/12 15:59:49;;;;;;;;;;;29.00;27.60;;;;;;5066563;28;19916;-82
2022/08/12 16:02:17;;;;;;;;;;;29.00;28.00;;;;;;5078078;28;20011;-83
2022/08/12 16:04:43;;;;;;;;;;;29.10;28.20;;;;;;5071279;28;19912;-84
2022/08/12 16:07:09;;;;;;;;;;;29.20;28.10;;;;;;5091902;28;19925;-84
2022/08/12 16:09:34;;;;;;;;;;;29.20;28.00;;;;;;5080304;28;19916;-83